createdAt,value
2023-03-30T00:02:22.805Z,12.55
2023-03-30T00:04:55.556Z,12.53
2023-03-30T00:07:26.035Z,12.51
2023-03-30T00:09:56.107Z,12.50
2023-03-30T00:12:26.067Z,12.49
2023-03-30T00:14:59.485Z,12.49
2023-03-30T00:17:33.725Z,12.50
2023-03-30T00:20:06.608Z,12.49
2023-03-30T00:22:37.177Z,12.51
2023-03-30T00:25:09.019Z,12.51
2023-03-30T00:27:40.437Z,12.54
2023-03-30T00:30:13.865Z,12.53
2023-03-30T00:32:47.357Z,12.53
2023-03-30T00:35:18.283Z,12.53
2023-03-30T00:37:49.776Z,12.55
2023-03-30T00:40:21.690Z,12.56
2023-03-30T00:42:51.588Z,12.56
2023-03-30T00:45:27.986Z,12.56
2023-03-30T00:48:08.266Z,12.57
2023-03-30T00:50:43.397Z,12.56
2023-03-30T00:53:18.203Z,12.55
2023-03-30T00:55:50.646Z,12.54
2023-03-30T00:58:22.689Z,12.54
2023-03-30T01:00:53.351Z,12.51
2023-03-30T01:03:31.708Z,12.51
2023-03-30T01:06:04.551Z,12.52
2023-03-30T01:08:39.549Z,12.50
2023-03-30T01:11:11.258Z,12.50
2023-03-30T01:13:44.755Z,12.51
2023-03-30T01:16:25.660Z,12.51
2023-03-30T01:19:06.248Z,12.51
2023-03-30T01:22:07.323Z,12.52
2023-03-30T01:25:03.136Z,12.51
2023-03-30T01:28:02.163Z,12.51
2023-03-30T01:31:07.650Z,12.51
2023-03-30T01:34:11.790Z,12.51
2023-03-30T01:37:28.038Z,12.51
2023-03-30T01:40:13.467Z,12.50
2023-03-30T01:42:53.365Z,12.51
2023-03-30T01:45:31.630Z,12.51
2023-03-30T01:48:09.433Z,12.50
2023-03-30T01:50:44.096Z,12.51
2023-03-30T01:53:19.083Z,12.53
2023-03-30T01:55:58.519Z,12.53
2023-03-30T01:58:33.947Z,12.54
2023-03-30T02:01:11.433Z,12.58
2023-03-30T02:03:45.648Z,12.58
2023-03-30T02:06:25.117Z,12.58
2023-03-30T02:08:59.572Z,12.59
2023-03-30T02:11:34.057Z,12.59
2023-03-30T02:14:07.096Z,12.58
2023-03-30T02:16:42.061Z,12.57
2023-03-30T02:19:12.327Z,12.56
2023-03-30T02:21:42.484Z,12.52
2023-03-30T02:24:19.541Z,12.50
2023-03-30T02:26:53.877Z,12.46
2023-03-30T02:29:24.694Z,12.44
2023-03-30T02:32:00.227Z,12.45
2023-03-30T02:34:48.936Z,12.45
2023-03-30T02:37:36.816Z,12.42
2023-03-30T02:40:23.238Z,12.42
2023-03-30T02:43:22.790Z,12.42
2023-03-30T02:45:57.004Z,12.40
2023-03-30T02:48:36.973Z,12.39
2023-03-30T02:51:20.658Z,12.37
2023-03-30T02:53:58.607Z,12.36
2023-03-30T02:56:34.978Z,12.38
2023-03-30T02:59:13.165Z,12.39
2023-03-30T03:01:48.084Z,12.40
2023-03-30T03:04:18.464Z,12.42
2023-03-30T03:06:53.163Z,12.44
2023-03-30T03:09:25.343Z,12.43
2023-03-30T03:11:55.299Z,12.44
2023-03-30T03:14:29.803Z,12.44
2023-03-30T03:17:01.995Z,12.44
2023-03-30T03:19:31.885Z,12.46
2023-03-30T03:22:01.764Z,12.47
2023-03-30T03:24:34.207Z,12.48
2023-03-30T03:27:04.238Z,12.49
2023-03-30T03:29:36.727Z,12.50
2023-03-30T03:32:06.623Z,12.49
2023-03-30T03:34:36.563Z,12.48
2023-03-30T03:37:06.502Z,12.46
2023-03-30T03:39:37.509Z,12.45
2023-03-30T03:42:08.494Z,12.43
2023-03-30T03:44:40.973Z,12.41
2023-03-30T03:47:16.331Z,12.39
2023-03-30T03:49:46.693Z,12.37
2023-03-30T03:52:17.852Z,12.32
2023-03-30T03:54:47.854Z,12.32
2023-03-30T03:57:17.795Z,12.32
2023-03-30T03:59:50.312Z,12.31
2023-03-30T04:02:22.615Z,12.32
2023-03-30T04:04:54.257Z,12.31
2023-03-30T04:07:25.780Z,12.32
2023-03-30T04:09:55.670Z,12.31
2023-03-30T04:12:25.514Z,12.29
2023-03-30T04:14:58.053Z,12.28
2023-03-30T04:17:28.471Z,12.27
2023-03-30T04:19:59.500Z,12.26
2023-03-30T04:22:35.354Z,12.26
2023-03-30T04:25:07.210Z,12.25
2023-03-30T04:27:37.938Z,12.24
2023-03-30T04:30:11.752Z,12.25
2023-03-30T04:32:42.142Z,12.25
2023-03-30T04:35:14.450Z,12.26
2023-03-30T04:37:45.138Z,12.26
2023-03-30T04:40:16.723Z,12.28
2023-03-30T04:42:50.205Z,12.29
2023-03-30T04:45:22.833Z,12.31
2023-03-30T04:47:52.773Z,12.32
2023-03-30T04:50:22.997Z,12.34
2023-03-30T04:52:53.713Z,12.35
2023-03-30T04:55:24.290Z,12.36
2023-03-30T04:57:54.314Z,12.38
2023-03-30T05:00:28.547Z,12.38
2023-03-30T05:02:58.612Z,12.40
2023-03-30T05:05:30.952Z,12.42
2023-03-30T05:08:06.712Z,12.43
2023-03-30T05:10:37.058Z,12.42
2023-03-30T05:13:07.211Z,12.44
2023-03-30T05:15:40.096Z,12.44
2023-03-30T05:18:11.568Z,12.47
2023-03-30T05:20:43.662Z,12.48
2023-03-30T05:23:13.615Z,12.48
2023-03-30T05:25:50.904Z,12.50
2023-03-30T05:28:23.852Z,12.50
2023-03-30T05:30:59.588Z,12.51
2023-03-30T05:33:29.447Z,12.52
2023-03-30T05:36:00.057Z,12.53
2023-03-30T05:38:35.317Z,12.56
2023-03-30T05:41:06.790Z,12.57
2023-03-30T05:43:37.157Z,12.60
2023-03-30T05:46:10.230Z,12.61
2023-03-30T05:48:40.222Z,12.59
2023-03-30T05:51:11.100Z,12.59
2023-03-30T05:53:45.493Z,12.60
2023-03-30T05:56:22.440Z,12.58
2023-03-30T05:58:52.408Z,12.58
2023-03-30T06:01:29.188Z,12.56
2023-03-30T06:04:01.166Z,12.58
2023-03-30T06:06:37.344Z,12.58
2023-03-30T06:09:11.545Z,12.58
2023-03-30T06:11:41.572Z,12.59
2023-03-30T06:14:11.536Z,12.60
2023-03-30T06:16:44.181Z,12.65
2023-03-30T06:19:14.812Z,12.66
2023-03-30T06:21:45.222Z,12.66
2023-03-30T06:24:15.484Z,12.66
2023-03-30T06:26:45.330Z,12.67
2023-03-30T06:29:15.302Z,12.67
2023-03-30T06:31:48.282Z,12.69
2023-03-30T06:34:18.236Z,12.71
2023-03-30T06:36:49.033Z,12.72
2023-03-30T06:39:19.851Z,12.71
2023-03-30T06:41:50.077Z,12.70
2023-03-30T06:44:23.964Z,12.73
2023-03-30T06:47:02.591Z,12.75
2023-03-30T06:49:32.580Z,12.76
2023-03-30T06:52:04.487Z,12.77
2023-03-30T07:03:23.579Z,12.78
2023-03-30T07:05:54.191Z,12.80
2023-03-30T07:08:24.702Z,12.79
2023-03-30T07:10:59.715Z,12.83
2023-03-30T07:13:29.997Z,12.83
2023-03-30T07:16:03.542Z,12.86
2023-03-30T07:18:36.227Z,12.89
2023-03-30T07:21:06.647Z,12.89
2023-03-30T07:23:37.025Z,12.88
2023-03-30T07:26:08.632Z,12.89
2023-03-30T07:28:41.671Z,12.88
2023-03-30T07:31:14.138Z,12.89
2023-03-30T07:33:52.168Z,12.89
2023-03-30T07:36:23.757Z,12.88
2023-03-30T07:38:53.767Z,12.85
2023-03-30T07:41:24.676Z,12.84
2023-03-30T07:43:54.909Z,12.83
2023-03-30T07:46:24.993Z,12.77
2023-03-30T07:48:57.885Z,12.76
2023-03-30T07:51:28.136Z,12.75
2023-03-30T07:53:58.084Z,12.73
2023-03-30T07:56:27.960Z,12.70
2023-03-30T07:58:59.010Z,12.67
2023-03-30T08:01:31.759Z,12.65
2023-03-30T08:04:04.509Z,12.66
2023-03-30T08:06:34.444Z,12.66
2023-03-30T08:09:04.758Z,12.65
2023-03-30T08:11:36.245Z,12.65
2023-03-30T08:14:07.654Z,12.63
2023-03-30T08:16:39.225Z,12.61
2023-03-30T08:19:12.172Z,12.61
2023-03-30T08:21:43.376Z,12.59
2023-03-30T08:24:14.941Z,12.56
2023-03-30T08:26:45.099Z,12.57
2023-03-30T08:29:14.953Z,12.53
2023-03-30T08:31:45.846Z,12.49
2023-03-30T08:34:19.928Z,12.43
2023-03-30T08:36:49.998Z,12.38
2023-03-30T08:39:22.359Z,12.33
2023-03-30T08:42:21.614Z,12.31
2023-03-30T08:44:57.313Z,12.28
2023-03-30T08:47:34.448Z,12.30
2023-03-30T08:50:11.510Z,12.31
2023-03-30T08:52:42.290Z,12.35
2023-03-30T08:55:24.541Z,12.37
2023-03-30T08:57:59.648Z,12.40
2023-03-30T09:00:39.164Z,12.42
2023-03-30T09:03:42.606Z,12.43
2023-03-30T09:06:26.949Z,12.44
2023-03-30T09:08:57.063Z,12.43
2023-03-30T09:11:38.950Z,12.45
2023-03-30T09:14:15.829Z,12.49
2023-03-30T09:16:52.372Z,12.55
2023-03-30T09:19:28.831Z,12.62
2023-03-30T09:22:06.099Z,12.71
2023-03-30T09:24:36.024Z,12.82
2023-03-30T09:27:11.140Z,12.94
2023-03-30T09:29:52.692Z,13.06
2023-03-30T09:32:33.517Z,13.13
2023-03-30T09:35:08.026Z,13.20
2023-03-30T09:37:42.794Z,13.22
2023-03-30T09:40:26.338Z,13.21
2023-03-30T09:43:06.696Z,13.22
2023-03-30T09:45:37.120Z,13.24
2023-03-30T09:48:08.985Z,13.25
2023-03-30T09:50:46.881Z,13.27
2023-03-30T09:53:29.631Z,13.30
2023-03-30T09:56:04.662Z,13.34
2023-03-30T09:58:47.030Z,13.38
2023-03-30T10:01:20.400Z,13.37
2023-03-30T10:04:13.829Z,13.40
2023-03-30T10:06:49.881Z,13.38
2023-03-30T10:09:29.043Z,13.32
2023-03-30T10:12:08.579Z,13.25
2023-03-30T10:14:40.968Z,13.19
2023-03-30T10:17:11.191Z,13.19
2023-03-30T10:19:48.264Z,13.20
2023-03-30T10:22:23.979Z,13.21
2023-03-30T10:24:59.626Z,13.23
2023-03-30T10:27:31.349Z,13.25
2023-03-30T10:30:01.216Z,13.24
2023-03-30T10:32:34.556Z,13.27
2023-03-30T10:35:06.781Z,13.27
2023-03-30T10:37:39.370Z,13.27
2023-03-30T10:40:21.598Z,13.28
2023-03-30T10:42:55.711Z,13.27
2023-03-30T10:45:31.587Z,13.29
2023-03-30T10:48:15.122Z,13.28
2023-03-30T10:50:51.549Z,13.29
2023-03-30T10:53:41.843Z,13.28
2023-03-30T10:56:23.570Z,13.28
2023-03-30T10:59:10.297Z,13.25
2023-03-30T11:01:48.757Z,13.21
2023-03-30T11:04:25.800Z,13.22
2023-03-30T11:07:01.488Z,13.26
2023-03-30T11:09:35.349Z,13.19
2023-03-30T11:12:10.934Z,13.15
2023-03-30T11:14:48.897Z,13.14
2023-03-30T11:17:27.292Z,13.21
2023-03-30T11:20:00.420Z,13.29
2023-03-30T11:22:38.110Z,13.36
2023-03-30T11:25:22.355Z,13.40
2023-03-30T11:28:02.200Z,13.44
2023-03-30T11:30:35.204Z,13.45
2023-03-30T11:33:16.414Z,13.52
2023-03-30T11:35:49.988Z,13.56
2023-03-30T11:38:25.627Z,13.60
2023-03-30T11:41:03.415Z,13.62
2023-03-30T11:43:37.015Z,13.66
2023-03-30T11:46:16.072Z,13.70
2023-03-30T11:49:13.293Z,13.76
2023-03-30T11:51:55.013Z,13.81
2023-03-30T11:54:56.362Z,13.91
2023-03-30T11:57:39.886Z,14.01
2023-03-30T12:00:29.427Z,14.09
2023-03-30T12:03:16.225Z,14.16
2023-03-30T12:05:50.076Z,14.20
2023-03-30T12:08:40.242Z,14.24
2023-03-30T12:11:21.194Z,14.28
2023-03-30T12:13:52.533Z,14.29
2023-03-30T12:16:32.859Z,14.32
2023-03-30T12:19:14.703Z,14.29
2023-03-30T12:21:54.927Z,14.32
2023-03-30T12:24:32.408Z,14.27
2023-03-30T12:27:06.854Z,14.25
2023-03-30T12:30:02.628Z,14.25
2023-03-30T12:32:39.588Z,14.27
2023-03-30T12:35:39.325Z,14.35
2023-03-30T12:38:11.342Z,14.42
2023-03-30T12:40:48.471Z,14.46
2023-03-30T12:43:27.229Z,14.44
2023-03-30T12:46:08.331Z,14.43
2023-03-30T12:48:55.163Z,14.43
2023-03-30T12:51:41.211Z,14.41
2023-03-30T12:54:43.610Z,14.41
2023-03-30T12:57:27.832Z,14.38
2023-03-30T13:00:29.461Z,14.44
2023-03-30T13:03:28.907Z,14.54
2023-03-30T13:06:03.995Z,14.63
2023-03-30T13:08:37.954Z,14.69
2023-03-30T13:11:15.681Z,14.75
2023-03-30T13:13:52.278Z,14.81
2023-03-30T13:17:09.161Z,14.84
2023-03-30T13:20:26.142Z,14.78
2023-03-30T13:23:27.251Z,14.77
2023-03-30T13:26:08.030Z,14.84
2023-03-30T13:28:52.485Z,14.92
2023-03-30T13:31:40.507Z,14.92
2023-03-30T13:34:23.286Z,14.91
2023-03-30T13:37:02.962Z,14.85
2023-03-30T13:39:42.573Z,14.85
2023-03-30T13:42:28.117Z,14.90
2023-03-30T13:45:07.642Z,14.96
2023-03-30T13:47:49.245Z,14.98
2023-03-30T13:50:26.559Z,14.96
2023-03-30T13:53:03.766Z,14.97
2023-03-30T13:55:40.960Z,14.95
2023-03-30T13:58:17.650Z,14.92
2023-03-30T14:00:52.142Z,14.90
2023-03-30T14:04:24.893Z,14.89
2023-03-30T14:07:43.591Z,14.96
2023-03-30T14:11:08.423Z,14.98
2023-03-30T14:13:42.484Z,14.96
2023-03-30T14:16:40.617Z,14.92
2023-03-30T14:20:02.823Z,14.91
2023-03-30T14:22:34.024Z,14.90
2023-03-30T14:25:05.828Z,14.89
2023-03-30T14:27:42.434Z,14.86
2023-03-30T14:30:22.933Z,14.90
2023-03-30T14:33:08.166Z,14.95
2023-03-30T14:35:44.169Z,14.97
2023-03-30T14:38:22.363Z,14.97
2023-03-30T14:41:02.748Z,14.91
2023-03-30T14:43:35.464Z,14.87
2023-03-30T14:49:00.262Z,14.76
2023-03-30T14:51:41.654Z,14.73
2023-03-30T14:54:22.846Z,14.70
2023-03-30T14:57:02.744Z,14.71
2023-03-30T15:59:48.107Z,13.96
2023-03-30T16:16:37.864Z,13.94
2023-03-30T16:40:42.838Z,13.70
2023-03-30T16:45:57.626Z,13.60
2023-03-30T16:48:30.126Z,13.58
2023-03-30T16:51:01.352Z,13.56
2023-03-30T16:53:43.448Z,13.52
2023-03-30T16:56:19.405Z,13.51
2023-03-30T17:08:43.050Z,13.41
2023-03-30T17:11:16.205Z,13.39
2023-03-30T17:16:36.686Z,13.34
2023-03-30T17:19:14.662Z,13.29
2023-03-30T17:21:46.320Z,13.26
2023-03-30T17:24:23.169Z,13.23
2023-03-30T17:26:56.770Z,13.18
2023-03-30T17:29:34.969Z,13.17
2023-03-30T17:32:13.483Z,13.15
2023-03-30T17:34:43.298Z,13.12
2023-03-30T17:37:20.259Z,13.12
2023-03-30T17:46:11.475Z,13.09
2023-03-30T20:06:36.189Z,12.52
2023-03-30T20:09:14.850Z,12.46
2023-03-30T20:11:47.947Z,12.40
2023-03-30T20:17:14.476Z,12.35
2023-03-30T20:19:54.894Z,12.31
2023-03-30T20:22:26.704Z,12.29
2023-03-30T20:27:56.632Z,12.25
2023-03-30T20:30:59.463Z,12.23
2023-03-30T20:37:09.539Z,12.16
2023-03-30T20:40:30.624Z,12.12
2023-03-30T20:46:48.285Z,12.08
2023-03-30T20:53:11.896Z,12.01
2023-03-30T20:55:44.849Z,11.97
2023-03-30T20:58:17.575Z,11.95
2023-03-30T21:03:36.577Z,11.97
2023-03-30T21:08:45.399Z,11.92
2023-03-30T21:11:16.059Z,11.89
2023-03-30T21:13:52.392Z,11.89
2023-03-30T21:19:41.207Z,11.82
2023-03-30T21:22:34.557Z,11.80
2023-03-30T21:28:15.966Z,11.74
2023-03-30T21:30:51.635Z,11.74
2023-03-30T21:33:31.545Z,11.69
2023-03-30T21:36:02.476Z,11.64
2023-03-30T21:38:43.681Z,11.62
2023-03-30T21:41:22.349Z,11.60
2023-03-30T21:43:52.216Z,11.55
2023-03-30T21:46:30.691Z,11.55
2023-03-30T21:49:00.549Z,11.50
2023-03-30T21:51:32.822Z,11.49
2023-03-30T21:54:15.051Z,11.50
2023-03-30T21:56:48.626Z,11.49
2023-03-30T21:59:32.466Z,11.46
2023-03-30T22:02:33.299Z,11.41
2023-03-30T22:05:03.283Z,11.38
2023-03-30T22:07:36.325Z,11.36
2023-03-30T22:10:07.248Z,11.33
2023-03-30T22:12:52.433Z,11.32
2023-03-30T22:15:28.808Z,11.30
2023-03-30T22:18:11.131Z,11.30
2023-03-30T22:20:41.996Z,11.26
2023-03-30T22:23:11.848Z,11.25
2023-03-30T22:25:43.214Z,11.26
2023-03-30T22:28:15.863Z,11.26
2023-03-30T22:30:47.640Z,11.25
2023-03-30T22:33:20.534Z,11.26
2023-03-30T22:35:52.648Z,11.26
2023-03-30T22:38:27.945Z,11.25
2023-03-30T22:41:07.318Z,11.25
2023-03-30T22:43:38.164Z,11.21
2023-03-30T22:46:09.232Z,11.20
2023-03-30T22:48:43.286Z,11.20
2023-03-30T22:51:26.944Z,11.18
2023-03-30T22:54:02.729Z,11.15
2023-03-30T22:56:35.528Z,11.13
2023-03-30T22:59:06.186Z,11.13
2023-03-30T23:01:38.996Z,11.11
2023-03-30T23:04:12.558Z,11.11
2023-03-30T23:06:53.223Z,11.09
2023-03-30T23:09:29.293Z,11.05
2023-03-30T23:12:07.671Z,11.05
2023-03-30T23:14:47.471Z,11.06
2023-03-30T23:17:20.592Z,11.05
2023-03-30T23:20:16.552Z,11.05
2023-03-30T23:22:46.755Z,11.05
2023-03-30T23:25:18.031Z,11.05
2023-03-30T23:27:49.294Z,11.04
2023-03-30T23:30:37.468Z,11.02
2023-03-30T23:33:11.657Z,11.01
2023-03-30T23:39:26.535Z,11.00
2023-03-30T23:42:06.801Z,10.98
2023-03-30T23:44:39.764Z,10.96
2023-03-30T23:53:40.503Z,10.98
2023-03-30T23:56:19.127Z,10.97
2023-03-30T23:59:07.137Z,10.96
